KLFI

Langley AFB Airport

Hampton, Virginia, USA
METAR KLFI 220215Z 17005KT 10SM OVC020 19/17 A3016 RMK SLP220
Observed Flight Rules
May-22 @ 02:15 UTC (24 minutes ago) Marginal Visual Flight Rules
Wind Visibility Clouds
170° at 5 knots 10 miles
  • Overcast at 2,000' AGL
Temperatures Readings
Current 19°C / 66°F
Dewpoint 17°C / 63°F
Humidity 88%
Altimeter 30.16" Hg
Pressure 1022 hPa
Elevation 3
METAR KLFI 220215Z 17005KT 10SM OVC020 19/17 A3016 RMK SLP220
Observed Flight Rules
May-22 @ 02:15 UTC
(24 minutes ago)
MVFR
Wind Visibility
170° at 5 knots 10 miles
Clouds
  • Overcast at 2,000' AGL
Temperature Dewpoint
19°C / 66°F 17°C / 63°F
Humidity Altimeter Pressure
88% 30.16" Hg 1022 hPa